Jrs Mira — V2FS4 — position and weather

sailwx.info

Track history (hours):
 
Tides and Currents Weather Stations Pressure Air Temp Water Temp Dewpoint Dewpoint Depression Visibility Wind Speed Wind Dir Waves Ship Positions

Jrs Mira

Last reported at 2016-Jun-30 07:24 UTC. Time now 2016-Jul-01 02:50 UTC.
Position N 55°47' E 015°51'.

Length 107 m; draft 8.4 m.

Type: Cargo ship. MMSI: 305780000.

Date/timePositionNaut miles runAvg speedWind from/ knotsBaromVisibWave heightAir tempDewpointWater temp
2016-Jun-30 07:24N 55°47' E 015°51'1011.2
2016-Jun-30 06:31N 55°42' E 015°36'1111.2
2016-Jun-30 05:31N 55°36' E 015°19'1111.4
2016-Jun-30 04:33N 55°31' E 015°02'1111.3
2016-Jun-30 03:34N 55°25' E 014°44'1110.9
2016-Jun-30 02:34N 55°18' E 014°30'1111.2
2016-Jun-30 01:34N 55°09' E 014°18'1111.1
2016-Jun-30 00:34N 55°01' E 014°04'1111.3
2016-Jun-29 23:33N 54°58' E 013°45'1111.0
2016-Jun-29 22:33N 54°54' E 013°28'2310.8
2016-Jun-29 20:27N 54°46' E 012°50'910.6
2016-Jun-29 19:33N 54°41' E 012°36'1210.9
2016-Jun-29 18:30N 54°35' E 012°20'1110.9
2016-Jun-29 17:31N 54°26' E 012°10'1010.6
2016-Jun-29 16:33N 54°25' E 011°53'1110.8
2016-Jun-29 15:33N 54°28' E 011°35'1110.8
2016-Jun-29 14:33N 54°33' E 011°19'1110.8
2016-Jun-29 13:33N 54°38' E 011°02'9 9.3
2016-Jun-29 12:33N 54°45' E 010°51'1010.1
2016-Jun-29 11:34N 54°55' E 010°53'10 9.7
2016-Jun-29 10:33N 55°03' E 011°02'1010.0
2016-Jun-29 09:33N 55°13' E 011°06'87 9.7
2016-Jun-29 00:33N 56°38' E 011°44'1010.5
2016-Jun-28 23:33N 56°47' E 011°51'1211.6
2016-Jun-28 22:31N 56°58' E 011°44'1511.1
2016-Jun-28 21:11N 57°12' E 011°34'710.6
2016-Jun-28 20:33N 57°18' E 011°30'1110.9
2016-Jun-28 19:33N 57°28' E 011°22'1110.9
2016-Jun-28 18:33N 57°34' E 011°04'1110.5
2016-Jun-28 17:33N 57°39' E 010°47'4 0.9
2016-Jun-28 13:32N 57°41' E 010°41'8 7.4
2016-Jun-28 12:26N 57°49' E 010°36'27510.8
2016-Jun-27 11:04N 54°18' E 005°20'611.3
2016-Jun-27 10:33N 54°13' E 005°16'1211.4
2016-Jun-27 09:31N 54°03' E 005°07'1111.4
2016-Jun-27 08:33N 53°52' E 005°00'4410.9
2016-Jun-27 04:33N 53°12' E 004°33'1110.9
2016-Jun-27 03:30N 53°02' E 004°23'1110.2
2016-Jun-27 02:24N 52°52' E 004°14'910.1
2016-Jun-27 01:33N 52°45' E 004°06'1010.0
2016-Jun-27 00:33N 52°38' E 003°54'7011.6
2016-Jun-26 18:29N 51°46' E 002°38'1212.9
2016-Jun-26 17:33N 51°37' E 002°25'1413.0
2016-Jun-26 16:31N 51°26' E 002°12'1212.7
2016-Jun-26 15:33N 51°15' E 002°04'1212.3
2016-Jun-26 14:33N 51°08' E 001°48'1211.6
2016-Jun-26 13:33N 51°00' E 001°34'66 9.3
2016-Jun-26 06:27N 50°21' E 000°11'910.1
2016-Jun-26 05:33N 50°19' W 000°03'1010.1
2016-Jun-26 04:33N 50°16' W 000°18'1410.4
2016-Jun-26 03:14N 50°13' W 000°39'811.4
2016-Jun-26 02:33N 50°10' W 000°51'9413.4
2016-Jun-25 19:33N 49°42' W 003°10'8410.4
2016-Jun-25 11:28N 48°58' W 004°60'20 9.9
2016-Jun-25 09:27N 48°49' W 005°27'31410.5
2016-Jun-24 03:26N 43°35' W 005°41'0 0.0
2016-Jun-24 02:20N 43°35' W 005°41'0 0.0
2016-Jun-24 00:32N 43°35' W 005°41'0 0.0
2016-Jun-23 21:26N 43°35' W 005°41'0 0.0
2016-Jun-23 20:26N 43°35' W 005°41'0 0.0
2016-Jun-23 19:20N 43°35' W 005°41'0 0.0
2016-Jun-23 17:26N 43°35' W 005°41'0 0.0
2016-Jun-23 16:20N 43°35' W 005°41'0 0.0
2016-Jun-23 15:20N 43°35' W 005°41'0 0.0
2016-Jun-23 14:14N 43°35' W 005°41'0 0.0
2016-Jun-23 13:20N 43°35' W 005°41'0 0.0
2016-Jun-23 12:20N 43°35' W 005°41'0 0.0
2016-Jun-23 10:32N 43°35' W 005°41'3 2.6
2016-Jun-23 09:33N 43°37' W 005°41'1211.9
2016-Jun-23 08:32N 43°42' W 005°57'4912.2
2016-Jun-23 04:30N 43°47' W 007°04'1212.4
2016-Jun-23 03:34N 43°49' W 007°21'1312.5
2016-Jun-23 02:34N 43°50' W 007°38'1211.9
2016-Jun-23 01:33N 43°48' W 007°54'26210.0
2016-Jun-21 23:28N 39°41' W 009°49'1311.8
2016-Jun-21 22:22N 39°28' W 009°50'911.3
2016-Jun-21 21:33N 39°19' W 009°50'1111.1
2016-Jun-21 20:33N 39°08' W 009°50'1111.4
2016-Jun-21 19:33N 38°57' W 009°50'1111.2
2016-Jun-21 18:33N 38°45' W 009°50'1111.5
2016-Jun-21 17:33N 38°34' W 009°48'1211.7
2016-Jun-21 16:33N 38°23' W 009°44'1111.1
2016-Jun-21 15:33N 38°12' W 009°41'1110.6
2016-Jun-21 14:33N 38°01' W 009°38'1111.1
2016-Jun-21 13:33N 37°51' W 009°34'1111.4
2016-Jun-21 12:33N 37°40' W 009°31'1111.2
2016-Jun-21 11:33N 37°29' W 009°29'1211.3
2016-Jun-21 10:29N 37°17' W 009°25'3811.2
2016-Jun-21 07:03N 36°43' W 009°03'3011.6
2016-Jun-21 04:29N 36°16' W 008°47'2311.9
2016-Jun-21 02:33N 35°55' W 008°36'4811.8
2016-Jun-20 22:29N 35°10' W 008°15'1111.6
2016-Jun-20 21:31N 34°60' W 008°10'1111.5
2016-Jun-20 20:32N 34°49' W 008°05'1611.4
2016-Jun-20 19:08N 34°34' W 007°58'611.2
2016-Jun-20 18:33N 34°28' W 007°55'1111.2
2016-Jun-20 17:33N 34°18' W 007°50'1111.4
2016-Jun-20 16:33N 34°07' W 007°45'1111.1
2016-Jun-20 15:33N 33°57' W 007°40'1111.1
2016-Jun-20 14:33N 33°46' W 007°35'  
Track history (hours):
 
Tides and Currents Weather Stations Pressure Air Temp Water Temp Dewpoint Dewpoint Depression Visibility Wind Speed Wind Dir Waves Ship Positions

Jrs Mira

Last reported at 2016-Jun-30 07:24 UTC. Time now 2016-Jul-01 02:50 UTC.
Position N 55°47' E 015°51'.

Length 107 m; draft 8.4 m.

Type: Cargo ship. MMSI: 305780000.

Date/timePositionNaut miles runAvg speedWind from/ knotsBaromVisibWave heightAir tempDewpointWater temp
2016-Jun-30 07:24N 55°47' E 015°51'1011.2
2016-Jun-30 06:31N 55°42' E 015°36'1111.2
2016-Jun-30 05:31N 55°36' E 015°19'1111.4
2016-Jun-30 04:33N 55°31' E 015°02'1111.3
2016-Jun-30 03:34N 55°25' E 014°44'1110.9
2016-Jun-30 02:34N 55°18' E 014°30'1111.2
2016-Jun-30 01:34N 55°09' E 014°18'1111.1
2016-Jun-30 00:34N 55°01' E 014°04'1111.3
2016-Jun-29 23:33N 54°58' E 013°45'1111.0
2016-Jun-29 22:33N 54°54' E 013°28'2310.8
2016-Jun-29 20:27N 54°46' E 012°50'910.6
2016-Jun-29 19:33N 54°41' E 012°36'1210.9
2016-Jun-29 18:30N 54°35' E 012°20'1110.9
2016-Jun-29 17:31N 54°26' E 012°10'1010.6
2016-Jun-29 16:33N 54°25' E 011°53'1110.8
2016-Jun-29 15:33N 54°28' E 011°35'1110.8
2016-Jun-29 14:33N 54°33' E 011°19'1110.8
2016-Jun-29 13:33N 54°38' E 011°02'9 9.3
2016-Jun-29 12:33N 54°45' E 010°51'1010.1
2016-Jun-29 11:34N 54°55' E 010°53'10 9.7
2016-Jun-29 10:33N 55°03' E 011°02'1010.0
2016-Jun-29 09:33N 55°13' E 011°06'87 9.7
2016-Jun-29 00:33N 56°38' E 011°44'1010.5
2016-Jun-28 23:33N 56°47' E 011°51'1211.6
2016-Jun-28 22:31N 56°58' E 011°44'1511.1
2016-Jun-28 21:11N 57°12' E 011°34'710.6
2016-Jun-28 20:33N 57°18' E 011°30'1110.9
2016-Jun-28 19:33N 57°28' E 011°22'1110.9
2016-Jun-28 18:33N 57°34' E 011°04'1110.5
2016-Jun-28 17:33N 57°39' E 010°47'4 0.9
2016-Jun-28 13:32N 57°41' E 010°41'8 7.4
2016-Jun-28 12:26N 57°49' E 010°36'27510.8
2016-Jun-27 11:04N 54°18' E 005°20'611.3
2016-Jun-27 10:33N 54°13' E 005°16'1211.4
2016-Jun-27 09:31N 54°03' E 005°07'1111.4
2016-Jun-27 08:33N 53°52' E 005°00'4410.9
2016-Jun-27 04:33N 53°12' E 004°33'1110.9
2016-Jun-27 03:30N 53°02' E 004°23'1110.2
2016-Jun-27 02:24N 52°52' E 004°14'910.1
2016-Jun-27 01:33N 52°45' E 004°06'1010.0
2016-Jun-27 00:33N 52°38' E 003°54'7011.6
2016-Jun-26 18:29N 51°46' E 002°38'1212.9
2016-Jun-26 17:33N 51°37' E 002°25'1413.0
2016-Jun-26 16:31N 51°26' E 002°12'1212.7
2016-Jun-26 15:33N 51°15' E 002°04'1212.3
2016-Jun-26 14:33N 51°08' E 001°48'1211.6
2016-Jun-26 13:33N 51°00' E 001°34'66 9.3
2016-Jun-26 06:27N 50°21' E 000°11'910.1
2016-Jun-26 05:33N 50°19' W 000°03'1010.1
2016-Jun-26 04:33N 50°16' W 000°18'1410.4
2016-Jun-26 03:14N 50°13' W 000°39'811.4
2016-Jun-26 02:33N 50°10' W 000°51'9413.4
2016-Jun-25 19:33N 49°42' W 003°10'8410.4
2016-Jun-25 11:28N 48°58' W 004°60'20 9.9
2016-Jun-25 09:27N 48°49' W 005°27'31410.5
2016-Jun-24 03:26N 43°35' W 005°41'0 0.0
2016-Jun-24 02:20N 43°35' W 005°41'0 0.0
2016-Jun-24 00:32N 43°35' W 005°41'0 0.0
2016-Jun-23 21:26N 43°35' W 005°41'0 0.0
2016-Jun-23 20:26N 43°35' W 005°41'0 0.0
2016-Jun-23 19:20N 43°35' W 005°41'0 0.0
2016-Jun-23 17:26N 43°35' W 005°41'0 0.0
2016-Jun-23 16:20N 43°35' W 005°41'0 0.0
2016-Jun-23 15:20N 43°35' W 005°41'0 0.0
2016-Jun-23 14:14N 43°35' W 005°41'0 0.0
2016-Jun-23 13:20N 43°35' W 005°41'0 0.0
2016-Jun-23 12:20N 43°35' W 005°41'0 0.0
2016-Jun-23 10:32N 43°35' W 005°41'3 2.6
2016-Jun-23 09:33N 43°37' W 005°41'1211.9
2016-Jun-23 08:32N 43°42' W 005°57'4912.2
2016-Jun-23 04:30N 43°47' W 007°04'1212.4
2016-Jun-23 03:34N 43°49' W 007°21'1312.5
2016-Jun-23 02:34N 43°50' W 007°38'1211.9
2016-Jun-23 01:33N 43°48' W 007°54'26210.0
2016-Jun-21 23:28N 39°41' W 009°49'1311.8
2016-Jun-21 22:22N 39°28' W 009°50'911.3
2016-Jun-21 21:33N 39°19' W 009°50'1111.1
2016-Jun-21 20:33N 39°08' W 009°50'1111.4
2016-Jun-21 19:33N 38°57' W 009°50'1111.2
2016-Jun-21 18:33N 38°45' W 009°50'1111.5
2016-Jun-21 17:33N 38°34' W 009°48'1211.7
2016-Jun-21 16:33N 38°23' W 009°44'1111.1
2016-Jun-21 15:33N 38°12' W 009°41'1110.6
2016-Jun-21 14:33N 38°01' W 009°38'1111.1
2016-Jun-21 13:33N 37°51' W 009°34'1111.4
2016-Jun-21 12:33N 37°40' W 009°31'1111.2
2016-Jun-21 11:33N 37°29' W 009°29'1211.3
2016-Jun-21 10:29N 37°17' W 009°25'3811.2
2016-Jun-21 07:03N 36°43' W 009°03'3011.6
2016-Jun-21 04:29N 36°16' W 008°47'2311.9
2016-Jun-21 02:33N 35°55' W 008°36'4811.8
2016-Jun-20 22:29N 35°10' W 008°15'1111.6
2016-Jun-20 21:31N 34°60' W 008°10'1111.5
2016-Jun-20 20:32N 34°49' W 008°05'1611.4
2016-Jun-20 19:08N 34°34' W 007°58'611.2
2016-Jun-20 18:33N 34°28' W 007°55'1111.2
2016-Jun-20 17:33N 34°18' W 007°50'1111.4
2016-Jun-20 16:33N 34°07' W 007°45'1111.1
2016-Jun-20 15:33N 33°57' W 007°40'1111.1
2016-Jun-20 14:33N 33°46' W 007°35'  

Dump ship's entire track history